Time;durP1;ratioP1;P1;durP2;ratioP2;P2;SDS_P1;SDS_P2;PMS_P1;PMS_P2;Temp;Humidity;BMP_temperature;BMP_pressure;BME280_temperature;BME280_humidity;BME280_pressure;Samples;Min_cycle;Max_cycle;Signal;HPM_P1;HPM_P2
2022/08/17 00:04:28;;;;;;;37.88;28.60;;;;;;;17.54;94.21;100734.59;10403807;28;20046;-79
2022/08/17 00:09:28;;;;;;;31.58;28.17;;;;;;;17.54;94.00;100726.66;10415070;28;20119;-80
2022/08/17 00:14:29;;;;;;;29.35;26.05;;;;;;;17.58;93.99;100725.84;10448883;28;20040;-80
2022/08/17 00:19:31;;;;;;;33.22;26.98;;;;;;;17.57;93.74;100717.88;10483546;28;20039;-80
2022/08/17 00:24:31;;;;;;;28.30;25.38;;;;;;;17.52;93.21;100717.78;10460697;28;20052;-80
2022/08/17 00:29:32;;;;;;;33.20;24.10;;;;;;;17.49;93.25;100722.16;10443696;28;20108;-80
2022/08/17 00:34:33;;;;;;;34.15;29.40;;;;;;;17.41;93.24;100722.00;10475439;28;20044;-80
2022/08/17 00:39:33;;;;;;;32.42;27.67;;;;;;;17.37;93.17;100714.88;10477346;28;20092;-79
2022/08/17 00:44:34;;;;;;;28.90;25.10;;;;;;;17.30;93.13;100709.50;10476526;28;20098;-78
2022/08/17 00:49:34;;;;;;;34.28;26.35;;;;;;;17.25;93.44;100708.53;10479181;28;20481;-78
2022/08/17 00:54:37;;;;;;;30.05;25.02;;;;;;;17.20;93.64;100709.31;10478603;28;20036;-78
2022/08/17 00:59:48;;;;;;;32.65;27.05;;;;;;;17.20;94.06;100702.25;10466654;28;20044;-79
2022/08/17 01:04:50;;;;;;;32.97;24.70;;;;;;;17.14;93.96;100697.75;10405660;28;20060;-79
2022/08/17 01:09:50;;;;;;;32.70;28.17;;;;;;;17.08;94.46;100700.31;10367612;28;20045;-78
2022/08/17 01:14:51;;;;;;;31.63;28.23;;;;;;;17.03;94.88;100689.63;10433153;28;20041;-78
2022/08/17 01:19:51;;;;;;;33.03;29.38;;;;;;;17.03;95.37;100684.34;10437216;28;20412;-79
2022/08/17 01:24:56;;;;;;;31.77;28.38;;;;;;;16.92;95.31;100674.41;10433292;28;20043;-79
2022/08/17 01:29:59;;;;;;;31.42;26.90;;;;;;;16.75;95.47;100674.97;10479129;28;20518;-79
2022/08/17 01:35:00;;;;;;;34.38;30.77;;;;;;;16.66;96.26;100675.69;10431145;28;20041;-79
2022/08/17 01:40:31;;;;;;;32.85;28.73;;;;;;;16.53;96.99;100661.34;10423108;28;20108;-79
2022/08/17 01:45:33;;;;;;;30.98;27.60;;;;;;;16.41;97.47;100667.25;10481122;28;20401;-78
2022/08/17 01:50:33;;;;;;;35.88;31.45;;;;;;;16.34;97.86;100672.41;10458761;28;20063;-78
2022/08/17 01:55:40;;;;;;;38.97;33.40;;;;;;;16.34;98.83;100675.91;10487945;28;20123;-78
2022/08/17 02:00:41;;;;;;;43.47;35.05;;;;;;;16.32;99.18;100666.19;10470680;28;20124;-78
2022/08/17 02:05:41;;;;;;;36.22;32.33;;;;;;;16.30;99.68;100668.78;10431310;28;20516;-78
2022/08/17 02:10:42;;;;;;;35.17;30.02;;;;;;;16.30;100.00;100666.16;10448249;28;20121;-78
2022/08/17 02:15:43;;;;;;;33.35;28.42;;;;;;;16.33;100.00;100663.56;10470526;28;20052;-78
2022/08/17 02:20:43;;;;;;;38.67;32.70;;;;;;;16.30;100.00;100666.16;10457141;28;20043;-78
2022/08/17 02:25:44;;;;;;;29.98;26.88;;;;;;;16.37;100.00;100667.19;10486003;28;20047;-78
2022/08/17 02:30:45;;;;;;;32.40;26.15;;;;;;;16.33;100.00;100667.97;10471821;28;20033;-79
2022/08/17 02:35:45;;;;;;;30.38;27.13;;;;;;;16.21;100.00;100666.88;10447925;28;20124;-79
2022/08/17 02:40:46;;;;;;;27.52;24.00;;;;;;;16.22;100.00;100659.81;10447618;28;20439;-79
2022/08/17 02:45:46;;;;;;;28.42;25.52;;;;;;;16.24;100.00;100659.00;10460296;28;20179;-79
2022/08/17 02:50:47;;;;;;;29.55;26.45;;;;;;;16.27;100.00;100658.16;10445717;28;20029;-79
2022/08/17 02:55:47;;;;;;;30.17;26.98;;;;;;;16.28;100.00;100659.94;10467978;28;20116;-80
2022/08/17 03:00:48;;;;;;;29.08;25.08;;;;;;;16.26;100.00;100661.66;10486967;28;20028;-79
2022/08/17 03:05:50;;;;;;;32.50;28.85;;;;;;;16.25;100.00;100654.59;10449100;28;20045;-79
2022/08/17 03:10:50;;;;;;;31.48;28.13;;;;;;;16.29;100.00;100643.25;10445691;28;20469;-79
2022/08/17 03:15:51;;;;;;;29.63;25.35;;;;;;;16.31;100.00;100644.16;10456761;28;20060;-79
2022/08/17 03:20:56;;;;;;;30.73;26.75;;;;;;;16.27;100.00;100637.94;10447164;28;20037;-79
2022/08/17 03:25:56;;;;;;;27.30;24.40;;;;;;;16.24;100.00;100634.34;10483077;28;20438;-79
2022/08/17 03:30:57;;;;;;;27.17;23.30;;;;;;;16.17;100.00;100635.97;10469093;28;20086;-82
2022/08/17 03:35:57;;;;;;;27.25;24.45;;;;;;;16.15;100.00;100633.28;10445286;28;20037;-79
2022/08/17 03:40:58;;;;;;;30.38;25.55;;;;;;;16.05;100.00;100636.59;10427755;28;20033;-79
2022/08/17 03:56:41;;;;;;;32.57;29.10;;;;;;;15.83;100.00;100646.63;10484552;28;20435;-77
2022/08/17 04:01:43;;;;;;;33.27;29.67;;;;;;;15.86;100.00;100653.75;10479775;28;20094;-78
2022/08/17 04:06:44;;;;;;;34.42;30.60;;;;;;;15.82;100.00;100649.25;10426532;28;20132;-77
2022/08/17 04:11:44;;;;;;;35.78;29.50;;;;;;;15.81;100.00;100650.13;10445093;28;20553;-77
2022/08/17 04:16:45;;;;;;;37.67;32.13;;;;;;;15.82;100.00;100652.78;10484624;28;20490;-77
2022/08/17 04:21:45;;;;;;;33.13;28.38;;;;;;;15.91;100.00;100659.16;10479459;28;20043;-78
2022/08/17 04:26:46;;;;;;;32.67;28.88;;;;;;;15.95;100.00;100667.19;10442185;28;20044;-79
2022/08/17 04:31:46;;;;;;;33.63;30.08;;;;;;;16.12;100.00;100682.50;10415861;28;20131;-77
2022/08/17 04:36:48;;;;;;;35.67;29.63;;;;;;;16.17;100.00;100699.34;10377996;28;20038;-78
2022/08/17 04:42:07;;;;;;;32.00;26.98;;;;;;;16.32;100.00;100704.03;10425333;28;20036;-78
2022/08/17 04:47:08;;;;;;;25.88;21.52;;;;;;;16.40;100.00;100704.22;10448717;28;20508;-78
2022/08/17 04:52:09;;;;;;;27.60;24.65;;;;;;;16.56;100.00;100708.06;10442603;28;20056;-77
2022/08/17 04:57:10;;;;;;;30.48;26.20;;;;;;;16.52;100.00;100715.03;10423066;28;20037;-77
2022/08/17 05:02:12;;;;;;;24.75;22.17;;;;;;;16.56;99.98;100718.63;10399323;28;20505;-77
2022/08/17 05:07:13;;;;;;;25.45;22.02;;;;;;;16.62;100.00;100720.53;10398529;28;20121;-79
2022/08/17 05:12:14;;;;;;;28.27;24.63;;;;;;;16.63;99.62;100714.38;10464217;28;20044;-79
2022/08/17 05:17:15;;;;;;;24.52;21.92;;;;;;;16.73;98.55;100726.91;10480727;28;20036;-79
2022/08/17 05:22:15;;;;;;;22.02;19.73;;;;;;;16.76;98.45;100736.63;10452498;28;20057;-78
2022/08/17 05:27:16;;;;;;;23.60;21.10;;;;;;;16.81;98.47;100740.25;10459925;28;20041;-79
2022/08/17 05:32:21;;;;;;;25.75;22.67;;;;;;;16.96;98.21;100743.22;10461854;28;20476;-78
2022/08/17 05:37:21;;;;;;;28.00;21.15;;;;;;;17.12;97.25;100735.59;10448516;28;20144;-77
2022/08/17 05:42:22;;;;;;;22.88;20.63;;;;;;;17.20;96.10;100739.28;10449517;28;20052;-77
2022/08/17 05:47:23;;;;;;;24.30;21.75;;;;;;;17.32;95.68;100733.34;10448807;28;20040;-77
2022/08/17 05:52:28;;;;;;;23.30;20.45;;;;;;;17.52;95.29;100736.31;10388748;28;20045;-78
2022/08/17 05:57:37;;;;;;;23.27;20.90;;;;;;;17.68;93.52;100742.78;10446472;28;20484;-77
2022/08/17 06:02:52;;;;;;;24.77;22.17;;;;;;;18.01;91.37;100736.25;10482219;28;20045;-80
2022/08/17 06:08:31;;;;;;;28.75;22.80;;;;;;;18.36;90.33;100737.59;10465525;28;20087;-79
2022/08/17 06:13:55;;;;;;;26.38;23.58;;;;;;;18.63;88.48;100739.75;10449349;28;20531;-79
2022/08/17 06:19:01;;;;;;;26.85;21.33;;;;;;;18.83;88.64;100736.44;10400346;28;20057;-80
2022/08/17 06:24:06;;;;;;;27.70;24.15;;;;;;;19.02;86.11;100740.22;10424599;28;20124;-80
2022/08/17 06:29:19;;;;;;;34.03;30.45;;;;;;;19.08;86.79;100750.88;10461979;28;20094;-81
2022/08/17 06:34:19;;;;;;;38.70;31.80;;;;;;;19.07;86.24;100741.16;10452706;28;20047;-78
2022/08/17 06:39:42;;;;;;;36.83;32.38;;;;;;;19.17;84.96;100754.50;10428271;28;20067;-82
2022/08/17 06:44:48;;;;;;;39.85;35.30;;;;;;;19.24;85.03;100769.59;10446321;28;20044;-79
2022/08/17 06:50:10;;;;;;;44.75;34.65;;;;;;;19.32;84.83;100772.34;10454294;28;20416;-79
2022/08/17 06:55:13;;;;;;;43.35;38.78;;;;;;;19.37;84.33;100775.94;10451777;28;20052;-79
2022/08/17 07:00:18;;;;;;;48.45;41.55;;;;;;;19.39;84.66;100765.34;10434327;28;20068;-80
2022/08/17 07:05:24;;;;;;;45.58;40.60;;;;;;;19.36;84.68;100774.16;10426323;28;20132;-78
2022/08/17 07:10:24;;;;;;;45.72;40.55;;;;;;;19.31;86.34;100779.41;10473438;28;20036;-81
2022/08/17 07:15:32;;;;;;;51.08;43.83;;;;;;;19.25;86.26;100776.69;10427474;28;20511;-80
2022/08/17 07:20:33;;;;;;;50.67;44.80;;;;;;;19.28;86.53;100763.47;10438140;28;20059;-82
2022/08/17 07:25:34;;;;;;;55.13;48.10;;;;;;;19.31;86.64;100773.22;10465087;28;20039;-82
2022/08/17 07:30:40;;;;;;;52.47;45.65;;;;;;;19.36;86.52;100783.00;10449551;28;20422;-77
2022/08/17 07:35:41;;;;;;;49.72;42.53;;;;;;;19.66;86.21;100786.81;10417029;28;20424;-79
2022/08/17 07:41:03;;;;;;;49.78;44.28;;;;;;;19.83;86.70;100794.03;10448901;28;20059;-80
2022/08/17 07:51:50;;;;;;;57.83;50.42;;;;;;;19.86;90.47;100796.72;10469343;28;20048;-80
2022/08/17 07:56:58;;;;;;;56.05;49.97;;;;;;;20.01;88.04;100788.03;10479853;28;20037;-79
2022/08/17 08:02:06;;;;;;;54.40;48.55;;;;;;;20.19;84.91;100805.84;10453073;28;20037;-79
2022/08/17 08:07:23;;;;;;;57.92;50.00;;;;;;;20.74;84.69;100807.06;10442934;28;20053;-81
2022/08/17 08:12:40;;;;;;;50.30;44.78;;;;;;;21.40;78.93;100809.06;10443136;28;20049;-82
2022/08/17 08:17:49;;;;;;;56.13;41.85;;;;;;;22.11;75.95;100810.03;10443173;28;20068;-78
2022/08/17 08:23:04;;;;;;;48.15;42.75;;;;;;;22.55;74.65;100809.09;10479601;28;20037;-78
2022/08/17 08:28:36;;;;;;;51.45;44.28;;;;;;;22.71;73.27;100804.59;10480162;28;20549;-78
2022/08/17 08:33:43;;;;;;;48.92;43.67;;;;;;;22.67;72.34;100804.59;10444526;28;20033;-78
2022/08/17 08:38:58;;;;;;;47.78;42.72;;;;;;;22.52;72.38;100805.56;10479144;28;20036;-78
2022/08/17 08:44:10;;;;;;;55.20;49.30;;;;;;;22.52;72.87;100810.88;10469070;28;20480;-78
2022/08/17 08:49:44;;;;;;;49.60;44.28;;;;;;;22.32;73.29;100808.22;10480862;28;20040;-79
2022/08/17 08:54:51;;;;;;;49.20;43.58;;;;;;;22.43;73.53;100814.41;10452594;28;20044;-79
2022/08/17 09:00:14;;;;;;;53.30;47.80;;;;;;;22.11;75.16;100858.91;10457130;28;20495;-79
2022/08/17 09:05:39;;;;;;;48.38;43.17;;;;;;;21.56;75.65;100879.22;10445132;28;20040;-79
2022/08/17 09:11:18;;;;;;;53.17;44.75;;;;;;;21.13;77.95;100885.28;10479812;28;20040;-81
2022/08/17 09:16:28;;;;;;;70.68;48.03;;;;;;;20.96;81.71;100897.63;10440778;28;20040;-77
2022/08/17 09:21:53;;;;;;;53.92;47.92;;;;;;;20.24;85.21;100904.22;10433929;28;20493;-78
2022/08/17 09:27:17;;;;;;;60.20;51.25;;;;;;;19.72;91.25;100889.53;10437342;28;20515;-77
2022/08/17 09:32:27;;;;;;;66.97;55.53;;;;;;;19.64;95.86;100888.56;10425690;28;20373;-78
2022/08/17 09:37:48;;;;;;;68.07;57.58;;;;;;;19.86;98.22;100876.38;10440388;28;20107;-77
2022/08/17 09:43:08;;;;;;;66.53;51.15;;;;;;;19.82;95.39;100893.16;10424153;28;20500;-77
2022/08/17 09:48:19;;;;;;;64.40;56.30;;;;;;;19.67;96.89;100901.88;10424258;28;20127;-77
2022/08/17 09:53:20;;;;;;;62.20;49.90;;;;;;;19.79;97.89;100896.69;10440344;28;20047;-77
2022/08/17 09:58:55;;;;;;;66.30;55.67;;;;;;;20.03;nan;100892.53;10439590;28;20033;-77
2022/08/17 10:04:07;;;;;;;60.72;54.17;;;;;;;20.39;95.95;100891.06;10479808;28;20047;-77
2022/08/17 10:09:31;;;;;;;62.00;54.15;;;;;;;20.48;95.04;100884.03;10486662;28;20089;-78
2022/08/17 10:15:12;;;;;;;62.15;54.78;;;;;;;20.34;95.61;100887.47;10490616;28;20056;-77
2022/08/17 10:20:12;;;;;;;69.85;57.28;;;;;;;20.21;98.04;100891.78;10473931;28;20405;-77
2022/08/17 10:30:33;;;;;;;65.63;57.72;;;;;;;20.61;94.59;100888.53;10473725;28;20037;-77
2022/08/17 10:36:00;;;;;;;60.67;54.28;;;;;;;20.67;94.06;100885.00;10430595;28;20397;-77
2022/08/17 10:41:15;;;;;;;66.63;55.40;;;;;;;21.09;93.72;100888.81;10470111;28;20495;-77
2022/08/17 10:46:44;;;;;;;57.13;49.13;;;;;;;21.51;91.76;100894.31;10487872;28;20048;-78
2022/08/17 10:51:46;;;;;;;59.97;53.55;;;;;;;21.42;91.71;100897.81;10486555;28;20039;-77
2022/08/17 10:56:49;;;;;;;59.83;52.55;;;;;;;21.39;91.04;100910.25;10470747;28;20035;-78
2022/08/17 11:01:58;;;;;;;54.13;48.00;;;;;;;21.01;89.12;100924.28;10453817;28;20033;-77
2022/08/17 11:07:14;;;;;;;66.85;50.80;;;;;;;20.50;91.94;100930.13;10488113;28;20106;-78
2022/08/17 11:12:43;;;;;;;68.25;56.05;;;;;;;20.28;96.37;100931.69;10484873;28;20040;-77
2022/08/17 11:18:05;;;;;;;66.68;58.90;;;;;;;20.08;97.33;100922.69;10465051;28;20399;-77
2022/08/17 11:23:28;;;;;;;71.07;56.28;;;;;;;19.88;98.47;100924.22;10487031;28;20044;-77
2022/08/17 11:28:34;;;;;;;;;;;;;;;19.72;99.58;100918.75;10486377;28;20040;-77
2022/08/17 11:33:34;;;;;;;53.47;47.63;;;;;;;19.52;100.00;100922.06;10486915;28;19919;-77
2022/08/17 11:39:11;;;;;;;66.68;51.63;;;;;;;19.39;100.00;100920.16;10484429;28;20044;-77
2022/08/17 11:44:18;;;;;;;57.83;48.67;;;;;;;19.37;100.00;100916.59;10484572;28;20392;-77
2022/08/17 11:54:50;;;;;;;53.20;45.65;;;;;;;19.60;100.00;100908.00;10483919;28;20040;-77
2022/08/17 11:59:50;;;;;;;50.53;44.50;;;;;;;19.66;100.00;100914.25;10468056;28;20035;-77
2022/08/17 12:05:11;;;;;;;57.13;47.03;;;;;;;19.68;100.00;100927.56;10484529;28;20059;-77
2022/08/17 12:10:14;;;;;;;60.10;46.47;;;;;;;19.72;100.00;100925.81;10485433;28;20102;-77
2022/08/17 12:15:20;;;;;;;58.80;47.25;;;;;;;19.66;100.00;100935.50;10468601;28;20431;-77
2022/08/17 12:20:36;;;;;;;53.15;43.00;;;;;;;19.67;100.00;100947.00;10448795;28;20376;-77
2022/08/17 12:25:58;;;;;;;52.63;43.88;;;;;;;19.52;100.00;100948.63;10481841;28;20126;-77
2022/08/17 12:31:05;;;;;;;48.00;40.70;;;;;;;19.52;100.00;100956.56;10482038;28;20032;-77
2022/08/17 12:36:07;;;;;;;59.47;45.17;;;;;;;19.53;100.00;100957.44;10484186;28;20105;-78
2022/08/17 12:41:27;;;;;;;50.30;43.53;;;;;;;19.65;100.00;100960.25;10482842;28;20384;-78
2022/08/17 12:46:53;;;;;;;49.17;42.03;;;;;;;19.66;100.00;100935.50;10469075;28;20059;-78
2022/08/17 12:52:01;;;;;;;48.17;39.92;;;;;;;19.66;100.00;100932.84;10482216;28;20039;-77
2022/08/17 12:57:11;;;;;;;47.78;40.40;;;;;;;19.79;100.00;100932.97;10483322;28;20041;-76
2022/08/17 13:02:48;;;;;;;49.97;43.90;;;;;;;19.85;100.00;100925.06;10484452;28;20048;-77
2022/08/17 13:07:49;;;;;;;45.42;40.47;;;;;;;20.30;100.00;100932.59;10481118;28;20476;-76
2022/08/17 13:12:50;;;;;;;45.22;39.90;;;;;;;20.82;98.07;100929.47;10482753;28;20060;-77
2022/08/17 13:18:06;;;;;;;49.22;39.72;;;;;;;21.12;97.91;100923.44;10482753;28;20040;-77
2022/08/17 13:23:06;;;;;;;49.00;41.50;;;;;;;21.71;94.20;100913.03;10465913;28;20488;-77
2022/08/17 13:28:16;;;;;;;50.60;45.25;;;;;;;22.43;91.65;100905.97;10465508;28;20063;-77
2022/08/17 13:33:23;;;;;;;44.40;39.72;;;;;;;22.96;85.86;100902.34;10465172;28;20052;-77
2022/08/17 13:38:39;;;;;;;46.70;41.80;;;;;;;22.63;86.69;100907.75;10464539;28;20077;-78
2022/08/17 13:43:44;;;;;;;45.78;40.50;;;;;;;22.17;87.16;100905.97;10483136;28;20431;-78
2022/08/17 13:48:46;;;;;;;52.33;46.95;;;;;;;21.85;87.09;100904.16;10448175;28;20044;-78
2022/08/17 13:53:49;;;;;;;47.35;42.45;;;;;;;21.84;87.43;100899.72;10432201;28;20044;-78
2022/08/17 13:58:59;;;;;;;47.72;42.60;;;;;;;21.86;89.16;100895.28;10431133;28;20040;-78
2022/08/17 14:04:01;;;;;;;47.83;42.70;;;;;;;22.29;85.12;100900.63;10431336;28;20045;-77
2022/08/17 14:09:02;;;;;;;48.28;42.83;;;;;;;23.39;82.94;100893.31;10430986;28;20500;-78
2022/08/17 14:14:03;;;;;;;48.67;43.50;;;;;;;24.86;74.22;100893.97;10447539;28;20040;-78
2022/08/17 14:19:04;;;;;;;48.30;43.20;;;;;;;25.82;68.98;100884.69;10447509;28;20114;-78
2022/08/17 14:24:06;;;;;;;43.97;39.58;;;;;;;26.29;67.93;100878.59;10485321;28;20043;-78
2022/08/17 14:29:07;;;;;;;42.90;38.65;;;;;;;27.34;66.18;100876.53;10486807;28;20041;-79
2022/08/17 14:34:09;;;;;;;42.73;38.67;;;;;;;28.01;59.26;100874.13;10488443;28;20413;-80
2022/08/17 14:39:10;;;;;;;42.13;38.20;;;;;;;26.62;65.39;100876.19;10470676;28;20342;-80
2022/08/17 14:44:11;;;;;;;41.17;37.08;;;;;;;25.63;67.28;100879.59;10470240;28;20032;-79
2022/08/17 14:49:14;;;;;;;42.75;38.45;;;;;;;24.73;70.18;100877.13;10471431;28;20547;-79
2022/08/17 14:54:15;;;;;;;38.17;34.42;;;;;;;24.34;68.20;100870.34;10476899;28;20044;-79
2022/08/17 14:59:16;;;;;;;39.90;35.75;;;;;;;23.27;73.38;100873.78;10503155;28;20097;-78
2022/08/17 15:04:17;;;;;;;40.00;35.63;;;;;;;22.82;78.33;100862.38;10488722;28;20127;-79
2022/08/17 15:09:17;;;;;;;42.60;38.20;;;;;;;22.65;78.78;100860.63;10444227;28;20045;-79
2022/08/17 15:14:18;;;;;;;44.70;40.17;;;;;;;22.13;84.86;100865.13;10427438;28;20060;-78
2022/08/17 15:19:19;;;;;;;47.63;42.73;;;;;;;22.30;84.04;100859.75;10446232;28;20469;-79
2022/08/17 15:24:19;;;;;;;45.90;40.93;;;;;;;22.25;85.16;100852.69;10445399;28;20033;-79
2022/08/17 15:29:22;;;;;;;46.53;41.73;;;;;;;22.32;84.52;100854.44;10444234;28;20452;-79
2022/08/17 15:34:22;;;;;;;39.58;35.58;;;;;;;22.44;84.38;100848.19;10443515;28;20098;-79
2022/08/17 15:39:23;;;;;;;41.72;37.33;;;;;;;22.24;83.94;100846.44;10445371;28;20126;-78
2022/08/17 15:44:23;;;;;;;38.53;34.37;;;;;;;22.47;82.12;100839.34;10444796;28;20033;-79
2022/08/17 15:49:24;;;;;;;37.47;33.77;;;;;;;22.25;83.07;100858.88;10426786;28;20993;-79
2022/08/17 15:54:25;;;;;;;34.70;31.20;;;;;;;21.77;81.89;100852.66;10426601;28;20037;-78
2022/08/17 15:59:25;;;;;;;36.70;30.70;;;;;;;21.47;86.64;100846.34;10445254;28;20045;-78
2022/08/17 16:04:26;;;;;;;34.47;29.73;;;;;;;21.47;85.49;100830.38;10444076;28;20488;-78
2022/08/17 16:09:27;;;;;;;31.92;28.83;;;;;;;21.85;84.90;100838.47;10442370;28;20049;-80
2022/08/17 16:14:27;;;;;;;30.97;27.00;;;;;;;22.80;78.58;100838.34;10426125;28;20037;-79
2022/08/17 16:19:28;;;;;;;31.87;28.63;;;;;;;23.27;73.06;100847.09;10425925;28;20061;-78
2022/08/17 16:24:28;;;;;;;30.00;27.03;;;;;;;22.47;75.77;100852.69;10443352;28;20041;-79
2022/08/17 16:29:29;;;;;;;31.45;28.08;;;;;;;21.75;79.92;100857.09;10425011;28;20418;-79
2022/08/17 16:34:29;;;;;;;35.50;31.73;;;;;;;21.20;83.93;100858.72;10442612;28;20124;-79
2022/08/17 16:39:33;;;;;;;39.73;33.07;;;;;;;20.86;87.90;100855.91;10424694;28;20131;-79
2022/08/17 16:44:33;;;;;;;37.72;33.83;;;;;;;20.91;87.49;100852.41;10425451;28;20419;-78
2022/08/17 16:49:34;;;;;;;34.55;30.92;;;;;;;21.22;83.12;100854.28;10441318;28;20098;-80
2022/08/17 16:54:36;;;;;;;33.55;30.02;;;;;;;21.71;84.83;100857.09;10424675;28;20124;-80
2022/08/17 16:59:37;;;;;;;32.35;28.77;;;;;;;21.78;80.10;100870.41;10424666;28;20045;-80
2022/08/17 17:04:42;;;;;;;32.10;28.70;;;;;;;21.67;79.99;100867.75;10442710;28;20079;-80
2022/08/17 17:09:44;;;;;;;32.47;29.02;;;;;;;21.54;81.91;100867.69;10425340;28;20037;-80
2022/08/17 17:14:45;;;;;;;35.60;30.95;;;;;;;21.38;82.13;100865.88;10440896;28;20037;-80
2022/08/17 17:20:10;;;;;;;31.17;28.10;;;;;;;21.21;85.26;100873.78;10430223;28;20500;-80
2022/08/17 17:25:46;;;;;;;39.00;34.85;;;;;;;21.09;84.96;100867.53;10450010;28;20044;-81
2022/08/17 17:31:15;;;;;;;36.33;31.60;;;;;;;20.97;86.87;100876.38;10403742;28;20477;-80
2022/08/17 17:36:23;;;;;;;37.33;32.08;;;;;;;20.77;86.38;100873.56;10432293;28;20117;-80
2022/08/17 17:41:31;;;;;;;29.92;26.83;;;;;;;20.49;85.75;100899.09;10448670;28;20447;-80
2022/08/17 17:46:36;;;;;;;29.30;26.45;;;;;;;20.22;86.78;100908.63;10393020;28;20056;-80
2022/08/17 17:51:37;;;;;;;30.98;27.88;;;;;;;20.01;88.39;100904.00;10375374;28;20053;-80
2022/08/17 17:57:21;;;;;;;30.20;27.25;;;;;;;19.78;89.19;100899.31;10407792;28;20124;-80
2022/08/17 18:02:54;;;;;;;35.20;31.55;;;;;;;19.56;89.82;100896.44;10309350;28;20150;-80
2022/08/17 18:08:16;;;;;;;41.28;31.13;;;;;;;19.37;90.92;100898.88;10427321;28;20049;-80
2022/08/17 18:13:32;;;;;;;34.95;31.25;;;;;;;19.15;93.24;100900.41;10447817;28;20049;-80
2022/08/17 18:18:36;;;;;;;34.90;31.20;;;;;;;18.91;96.03;100907.13;10447705;28;20489;-80
2022/08/17 18:23:52;;;;;;;37.80;33.75;;;;;;;18.64;99.35;100915.56;10446809;28;20044;-80
2022/08/17 18:28:53;;;;;;;37.20;33.33;;;;;;;18.38;100.00;100936.34;10430365;28;20055;-80
2022/08/17 18:33:54;;;;;;;35.50;31.50;;;;;;;18.07;100.00;100934.06;10430752;28;20064;-80
2022/08/17 18:39:16;;;;;;;46.53;41.65;;;;;;;17.90;100.00;100950.50;10429716;28;20029;-79
2022/08/17 18:44:23;;;;;;;51.83;41.97;;;;;;;17.73;100.00;100946.63;10413291;28;20401;-79
2022/08/17 18:49:25;;;;;;;49.33;43.67;;;;;;;17.52;100.00;100947.97;10447907;28;20036;-79
2022/08/17 18:54:25;;;;;;;50.95;41.63;;;;;;;17.35;100.00;100950.28;10429098;28;20029;-79
2022/08/17 18:59:40;;;;;;;55.55;43.30;;;;;;;17.26;100.00;100950.09;10444500;28;20037;-79
2022/08/17 19:04:54;;;;;;;66.18;52.08;;;;;;;17.14;100.00;100958.66;10429613;28;20120;-79
2022/08/17 19:10:12;;;;;;;67.13;52.92;;;;;;;17.05;100.00;100962.00;10431051;28;20041;-79
2022/08/17 19:15:15;;;;;;;77.30;57.90;;;;;;;17.02;100.00;100959.28;10444341;28;20045;-78
2022/08/17 19:20:26;;;;;;;65.78;52.20;;;;;;;16.89;100.00;100960.69;10428365;28;20419;-78
2022/08/17 19:25:30;;;;;;;69.60;52.58;;;;;;;16.78;100.00;100964.84;10427954;28;20508;-78
2022/08/17 19:30:31;;;;;;;60.92;45.40;;;;;;;16.64;100.00;100972.44;10428193;28;20099;-78
2022/08/17 19:35:47;;;;;;;73.55;51.85;;;;;;;16.48;100.00;100969.44;10443832;28;20045;-78
2022/08/17 19:41:04;;;;;;;68.85;49.70;;;;;;;16.60;100.00;100971.47;10426790;28;20114;-79
2022/08/17 19:46:33;;;;;;;56.70;42.67;;;;;;;16.57;100.00;100979.31;10445171;28;20092;-78
2022/08/17 19:51:56;;;;;;;65.82;48.22;;;;;;;16.39;100.00;100977.13;10444109;28;20378;-78
2022/08/17 19:57:05;;;;;;;;;;;;;;;16.24;100.00;100975.88;10429004;28;20485;-79
2022/08/17 20:02:34;;;;;;;73.50;53.67;;;;;;;16.13;100.00;100975.56;10444894;28;20336;-78
2022/08/17 20:07:40;;;;;;;91.93;60.67;;;;;;;16.12;100.00;100979.06;10397956;28;20040;-78
2022/08/17 20:12:42;;;;;;;99.78;65.30;;;;;;;16.11;100.00;100982.56;10443637;28;20067;-79
2022/08/17 20:17:44;;;;;;;97.68;64.13;;;;;;;16.05;100.00;100982.41;10426427;28;20040;-78
2022/08/17 20:22:58;;;;;;;98.20;68.60;;;;;;;15.97;100.00;100987.47;10425306;28;20076;-79
2022/08/17 20:28:23;;;;;;;105.20;68.90;;;;;;;15.93;100.00;100996.16;10442981;28;20033;-79
2022/08/17 20:33:35;;;;;;;119.25;75.30;;;;;;;15.94;100.00;100999.69;10442168;28;20041;-78
2022/08/17 20:38:47;;;;;;;131.38;77.20;;;;;;;16.02;100.00;101010.47;10441703;28;20040;-78
2022/08/17 20:43:59;;;;;;;123.13;77.53;;;;;;;16.02;100.00;101007.84;10425171;28;20492;-78
2022/08/17 20:49:18;;;;;;;136.53;83.83;;;;;;;16.07;100.00;101007.09;10442398;28;20033;-79
2022/08/17 20:54:18;;;;;;;129.18;82.65;;;;;;;16.09;100.00;101012.44;10443694;28;20280;-77
2022/08/17 20:59:24;;;;;;;135.95;83.82;;;;;;;16.10;100.00;101012.47;10441433;28;20049;-77
2022/08/17 21:04:55;;;;;;;132.88;79.93;;;;;;;16.02;100.00;101010.47;10443011;28;20362;-77
2022/08/17 21:10:18;;;;;;;127.30;79.88;;;;;;;15.96;100.00;101016.47;10442009;28;20047;-78
2022/08/17 21:15:37;;;;;;;139.18;81.65;;;;;;;15.90;100.00;101018.94;10441829;28;20042;-77
2022/08/17 21:20:57;;;;;;;135.80;84.63;;;;;;;15.84;100.00;101022.28;10442409;28;20037;-77
2022/08/17 21:26:04;;;;;;;128.20;80.63;;;;;;;15.79;100.00;101031.78;10441960;28;20045;-78
2022/08/17 21:31:08;;;;;;;152.55;87.50;;;;;;;15.75;100.00;101038.72;10441297;28;20055;-78
2022/08/17 21:36:10;;;;;;;144.93;85.28;;;;;;;15.72;100.00;101033.34;10425025;28;20037;-78
2022/08/17 21:41:21;;;;;;;138.55;82.05;;;;;;;15.55;100.00;101036.38;10442398;28;20037;-79
2022/08/17 21:46:24;;;;;;;131.13;73.95;;;;;;;15.49;100.00;101040.59;10442697;28;20075;-78
2022/08/17 21:51:26;;;;;;;132.27;79.95;;;;;;;15.41;100.00;101046.53;10425089;28;20103;-78
2022/08/17 21:56:35;;;;;;;125.18;73.07;;;;;;;15.25;100.00;101039.00;10440278;28;20124;-78
2022/08/17 22:01:37;;;;;;;128.05;74.57;;;;;;;15.17;100.00;101024.69;10440882;28;20052;-79
2022/08/17 22:06:39;;;;;;;136.80;79.38;;;;;;;15.10;100.00;101016.56;10429729;28;20048;-78
2022/08/17 22:12:10;;;;;;;131.43;75.22;;;;;;;15.01;100.00;101024.19;10431837;28;20440;-78
2022/08/17 22:17:17;;;;;;;134.23;77.90;;;;;;;14.83;100.00;101016.56;10447580;28;20037;-78
2022/08/17 22:22:28;;;;;;;137.68;75.60;;;;;;;14.76;100.00;101017.22;10449355;28;20102;-78
2022/08/17 22:27:54;;;;;;;141.88;79.95;;;;;;;14.77;100.00;101013.75;10449559;28;20033;-78
2022/08/17 22:32:54;;;;;;;140.60;79.18;;;;;;;14.78;100.00;101019.06;10447164;28;20044;-78
2022/08/17 22:37:55;;;;;;;128.95;71.47;;;;;;;14.71;100.00;101021.44;10429983;28;20080;-78
2022/08/17 22:42:56;;;;;;;139.20;76.50;;;;;;;14.55;100.00;101031.44;10429864;28;20110;-78
2022/08/17 22:47:58;;;;;;;128.98;75.70;;;;;;;14.53;100.00;101038.38;10446725;28;20033;-77
2022/08/17 23:03:56;;;;;;;144.52;79.30;;;;;;;14.63;100.00;101045.75;10431991;28;20490;-78
2022/08/17 23:08:56;;;;;;;131.13;75.90;;;;;;;14.73;100.00;101035.56;10446130;28;20025;-78
2022/08/17 23:13:57;;;;;;;146.43;79.45;;;;;;;14.82;100.00;101026.22;10446856;28;20116;-78
2022/08/17 23:18:58;;;;;;;148.77;81.07;;;;;;;14.88;100.00;101030.78;10446672;28;20052;-78
2022/08/17 23:23:58;;;;;;;139.18;79.05;;;;;;;14.97;100.00;101041.63;10446689;28;20032;-78
2022/08/17 23:29:03;;;;;;;195.45;104.18;;;;;;;15.17;100.00;101049.28;10446582;28;20448;-78
2022/08/17 23:34:05;;;;;;;224.30;112.32;;;;;;;15.46;100.00;101043.13;10444795;28;20397;-78